Time;durP1;ratioP1;P1;durP2;ratioP2;P2;SDS_P1;SDS_P2;PMS_P1;PMS_P2;Temp;Humidity;BMP_temperature;BMP_pressure;BME280_temperature;BME280_humidity;BME280_pressure;Samples;Min_cycle;Max_cycle;Signal;HPM_P1;HPM_P2
2022/01/27 00:02:42;;;;;;;36.53;16.93;;;;;;;-142.75;100.00;79039.53;5033895;28;20148;-68
2022/01/27 00:05:05;;;;;;;32.53;16.13;;;;;;;-142.75;100.00;79037.56;5034838;28;20025;-67
2022/01/27 00:07:32;;;;;;;32.93;14.67;;;;;;;-142.75;100.00;79035.59;5040286;28;20116;-67
2022/01/27 00:10:12;;;;;;;30.03;15.33;;;;;;;-142.75;100.00;79031.66;5020432;28;20029;-67
2022/01/27 00:12:41;;;;;;;35.63;17.27;;;;;;;-142.75;100.00;79023.75;5033359;28;20028;-68
2022/01/27 00:15:11;;;;;;;34.03;15.63;;;;;;;-142.75;100.00;79023.75;5040550;28;20022;-68
2022/01/27 00:17:44;;;;;;;33.47;15.67;;;;;;;-142.75;100.00;79027.69;5041289;28;20025;-67
2022/01/27 00:20:12;;;;;;;33.77;16.90;;;;;;;-142.75;100.00;79011.94;5042333;28;20028;-68
2022/01/27 00:22:38;;;;;;;29.40;14.63;;;;;;;-142.75;100.00;79008.00;5042806;28;20087;-68
2022/01/27 00:25:05;;;;;;;28.25;14.63;;;;;;;-142.75;100.00;79004.06;5042920;28;20021;-67
2022/01/27 00:27:31;;;;;;;31.30;15.87;;;;;;;-142.75;100.00;79004.06;5033401;28;20025;-68
2022/01/27 00:29:56;;;;;;;32.33;15.43;;;;;;;-142.75;100.00;79009.97;5016869;28;20036;-68
2022/01/27 00:32:22;;;;;;;31.40;15.37;;;;;;;-142.75;100.00;78996.19;5033040;28;20021;-70
2022/01/27 00:34:47;;;;;;;32.13;16.42;;;;;;;-142.75;100.00;79006.03;5039515;28;20873;-68
2022/01/27 00:37:12;;;;;;;32.13;14.97;;;;;;;-142.75;100.00;79008.00;5048956;28;20028;-69
2022/01/27 00:39:38;;;;;;;31.60;15.27;;;;;;;-142.75;100.00;79006.03;5034106;28;20337;-70
2022/01/27 00:42:03;;;;;;;31.25;14.55;;;;;;;-142.75;100.00;78994.22;5040057;28;20048;-68
2022/01/27 00:44:28;;;;;;;27.52;14.50;;;;;;;-142.75;100.00;78996.19;5048017;28;20032;-68
2022/01/27 00:46:54;;;;;;;30.75;15.05;;;;;;;-142.75;100.00;78980.44;5047416;28;20017;-70
2022/01/27 00:49:19;;;;;;;31.45;15.85;;;;;;;-142.75;100.00;78978.47;5039049;28;20510;-69
2022/01/27 00:51:46;;;;;;;29.70;15.40;;;;;;;-142.75;100.00;78986.34;5028180;28;20032;-68
2022/01/27 00:54:21;;;;;;;27.70;14.50;;;;;;;-142.75;100.00;78974.53;5037788;28;20096;-66
2022/01/27 00:57:02;;;;;;;27.93;15.30;;;;;;;-142.75;100.00;78968.63;5043490;28;20510;-68
2022/01/27 00:59:36;;;;;;;37.87;15.47;;;;;;;-142.75;100.00;78976.50;5042234;28;20399;-69
2022/01/27 01:04:33;;;;;;;31.48;14.77;;;;;;;-142.75;100.00;78970.59;5050944;28;20115;-71
2022/01/27 01:06:58;;;;;;;38.17;15.70;;;;;;;-142.75;100.00;78970.59;5040859;28;20096;-68
2022/01/27 01:10:09;;;;;;;32.72;15.05;;;;;;;-142.75;100.00;78976.50;5033423;28;20037;-68
2022/01/27 01:15:15;;;;;;;30.60;14.70;;;;;;;-142.75;100.00;78946.94;5031612;28;20071;-69
2022/01/27 01:31:54;;;;;;;27.90;13.77;;;;;;;-142.75;100.00;78897.72;5051401;28;20051;-68
2022/01/27 01:36:37;;;;;;;28.83;15.30;;;;;;;-142.75;100.00;78897.72;5051495;28;20064;-68
2022/01/27 01:39:06;;;;;;;31.97;16.80;;;;;;;-142.75;100.00;78901.66;5021315;28;20483;-70
2022/01/27 01:41:32;;;;;;;31.87;16.40;;;;;;;-142.75;100.00;78893.78;5041522;28;20574;-67
2022/01/27 01:43:57;;;;;;;;;;;;;;;-142.75;100.00;78893.78;5050209;28;20027;-67
2022/01/27 01:46:22;;;;;;;35.17;16.77;;;;;;;-142.75;100.00;78891.78;5029119;28;20003;-68
2022/01/27 01:48:48;;;;;;;29.60;14.88;;;;;;;-142.75;100.00;78899.69;5028717;28;20486;-68
2022/01/27 01:51:28;;;;;;;33.20;16.65;;;;;;;-142.75;100.00;78909.53;5033880;28;20025;-68
2022/01/27 01:53:54;;;;;;;36.50;17.37;;;;;;;-142.75;100.00;78915.44;5038141;28;20033;-67
2022/01/27 01:56:19;;;;;;;33.45;16.15;;;;;;;-142.75;100.00;78921.34;5049149;28;20112;-67
2022/01/27 01:58:45;;;;;;;38.63;16.40;;;;;;;-142.75;100.00;78929.22;5049747;28;20089;-68
2022/01/27 02:01:10;;;;;;;30.75;15.75;;;;;;;-142.75;100.00;78927.25;5036397;28;20017;-68
2022/01/27 02:03:36;;;;;;;40.17;16.55;;;;;;;-142.75;100.00;78921.34;5049470;28;20079;-67
2022/01/27 02:06:01;;;;;;;40.05;16.98;;;;;;;-142.75;100.00;78933.16;5027789;28;20032;-68
2022/01/27 02:19:18;;;;;;;42.80;16.10;;;;;;;-142.75;100.00;78950.88;5035088;28;20044;-68
2022/01/27 02:21:53;;;;;;;34.40;15.43;;;;;;;-142.75;100.00;78943.00;5029528;28;20423;-68
2022/01/27 02:24:21;;;;;;;31.87;14.90;;;;;;;-142.75;100.00;78944.97;5031779;28;20045;-67
2022/01/27 02:26:49;;;;;;;37.33;16.37;;;;;;;-142.75;100.00;78952.84;5043084;28;20047;-66
2022/01/27 02:29:16;;;;;;;37.57;15.63;;;;;;;-142.75;100.00;78960.72;5030399;28;20036;-66
2022/01/27 02:31:42;;;;;;;35.30;14.67;;;;;;;-142.75;100.00;78964.69;5049398;28;20102;-67
2022/01/27 02:34:07;;;;;;;35.65;16.13;;;;;;;-142.75;100.00;78960.72;5050190;28;20052;-66
2022/01/27 02:36:33;;;;;;;32.40;14.25;;;;;;;-142.75;100.00;78952.84;5021516;28;20037;-67
2022/01/27 02:38:59;;;;;;;31.45;15.30;;;;;;;-142.75;100.00;78964.69;5030115;28;20036;-66
2022/01/27 02:41:27;;;;;;;33.33;15.13;;;;;;;-142.75;100.00;78956.78;5021907;28;20056;-67
2022/01/27 02:43:55;;;;;;;36.27;16.07;;;;;;;-142.75;100.00;78956.78;5044449;28;20029;-66
2022/01/27 02:46:25;;;;;;;33.70;15.93;;;;;;;-142.75;100.00;78950.88;5013071;28;20021;-67
2022/01/27 02:48:50;;;;;;;29.80;13.90;;;;;;;-142.75;100.00;78954.81;5035199;28;20044;-67
2022/01/27 02:51:15;;;;;;;31.53;15.17;;;;;;;-142.75;100.00;78964.69;5032286;28;20029;-66
2022/01/27 02:53:41;;;;;;;31.10;14.47;;;;;;;-142.75;100.00;78956.78;5049723;28;20834;-67
2022/01/27 02:56:06;;;;;;;31.03;14.73;;;;;;;-142.75;100.00;78956.78;5050168;28;20340;-67
2022/01/27 02:58:31;;;;;;;36.63;16.13;;;;;;;-142.75;100.00;78950.88;5039873;28;20304;-67
2022/01/27 03:00:56;;;;;;;28.20;14.73;;;;;;;-142.75;100.00;78946.94;5030620;28;20033;-67
2022/01/27 03:03:22;;;;;;;38.50;17.13;;;;;;;-142.75;100.00;78937.09;5035363;28;20017;-66
2022/01/27 03:05:47;;;;;;;31.03;15.83;;;;;;;-142.75;100.00;78923.31;5048520;28;20263;-67
2022/01/27 03:08:13;;;;;;;33.30;16.33;;;;;;;-142.75;100.00;78923.31;5047888;28;20021;-66
2022/01/27 03:10:44;;;;;;;37.92;14.95;;;;;;;-142.75;100.00;78915.44;5036129;28;20020;-66
2022/01/27 03:13:09;;;;;;;37.30;15.53;;;;;;;-142.75;100.00;78919.38;5034169;28;20021;-68
2022/01/27 03:15:34;;;;;;;34.58;15.07;;;;;;;-142.75;100.00;78915.44;5042585;28;20068;-66
2022/01/27 03:18:00;;;;;;;33.20;15.15;;;;;;;-142.75;100.00;78929.22;5035313;28;20053;-67
2022/01/27 03:20:32;;;;;;;32.22;14.82;;;;;;;-142.75;100.00;78927.25;5051242;28;20021;-67
2022/01/27 03:22:57;;;;;;;35.27;15.67;;;;;;;-142.75;100.00;78929.22;5053742;28;20029;-66
2022/01/27 03:25:23;;;;;;;32.50;15.27;;;;;;;-142.75;100.00;78927.25;5045635;28;21382;-67
2022/01/27 03:27:48;;;;;;;36.17;15.00;;;;;;;-142.75;100.00;78929.22;5033695;28;20187;-67
2022/01/27 03:30:15;;;;;;;34.37;15.93;;;;;;;-142.75;100.00;78917.41;5034100;28;20405;-67
2022/01/27 03:32:41;;;;;;;30.07;15.13;;;;;;;-142.75;100.00;78931.19;5034226;28;20056;-67
2022/01/27 03:35:07;;;;;;;27.83;15.48;;;;;;;-142.75;100.00;78933.16;5044136;28;20044;-66
2022/01/27 03:37:32;;;;;;;37.47;16.77;;;;;;;-142.75;100.00;78929.22;5053573;28;20111;-66
2022/01/27 03:39:57;;;;;;;40.00;16.70;;;;;;;-142.75;100.00;78933.16;5035429;28;20032;-67
2022/01/27 03:42:24;;;;;;;33.08;16.65;;;;;;;-142.75;100.00;78913.47;5040172;28;20386;-67
2022/01/27 03:44:49;;;;;;;34.10;16.63;;;;;;;-142.75;100.00;78915.44;5039101;28;20401;-69
2022/01/27 03:47:14;;;;;;;34.50;16.47;;;;;;;-142.75;100.00;78917.41;5047267;28;20029;-66
2022/01/27 03:49:40;;;;;;;34.87;15.97;;;;;;;-142.75;100.00;78931.19;5017884;28;20363;-67
2022/01/27 03:52:06;;;;;;;33.50;17.38;;;;;;;-142.75;100.00;78921.34;5035253;28;20389;-69
2022/01/27 03:54:31;;;;;;;36.80;17.50;;;;;;;-142.75;100.00;78929.22;5025890;28;20028;-67
2022/01/27 03:56:58;;;;;;;33.85;15.48;;;;;;;-142.75;100.00;78917.41;5042405;28;20082;-67
2022/01/27 03:59:23;;;;;;;34.17;16.57;;;;;;;-142.75;100.00;78915.44;5047271;28;20053;-67
2022/01/27 04:01:49;;;;;;;34.42;16.75;;;;;;;-142.75;100.00;78917.41;5018128;28;20122;-66
2022/01/27 04:04:15;;;;;;;29.63;16.17;;;;;;;-142.75;100.00;78913.47;5029751;28;20498;-67
2022/01/27 04:06:41;;;;;;;35.45;15.52;;;;;;;-142.75;100.00;78901.66;5034083;28;20032;-67
2022/01/27 04:09:08;;;;;;;;;;;;;;;-142.75;100.00;78895.75;5046395;28;20509;-66
2022/01/27 04:11:34;;;;;;;34.20;15.93;;;;;;;-142.75;100.00;78891.78;5040387;28;20429;-67
2022/01/27 04:14:00;;;;;;;34.17;15.77;;;;;;;-142.75;100.00;78893.78;5043740;28;20111;-67
2022/01/27 04:16:26;;;;;;;28.08;14.40;;;;;;;-142.75;100.00;78879.97;5015197;28;20112;-69
2022/01/27 04:18:51;;;;;;;29.55;14.52;;;;;;;-142.75;100.00;78879.97;5034771;28;20024;-66
2022/01/27 04:21:17;;;;;;;36.20;14.77;;;;;;;-142.75;100.00;78870.13;5045037;28;20505;-67
2022/01/27 04:23:43;;;;;;;39.28;15.02;;;;;;;-142.75;100.00;78866.19;5041257;28;20098;-66
2022/01/27 04:26:10;;;;;;;38.83;13.77;;;;;;;-142.75;100.00;78852.41;5049300;28;20029;-68
2022/01/27 04:28:37;;;;;;;33.77;14.17;;;;;;;-142.75;100.00;78842.56;5036498;28;20394;-70
2022/01/27 04:31:06;;;;;;;29.03;13.23;;;;;;;-142.75;100.00;78830.75;5050880;28;20021;-67
2022/01/27 04:33:33;;;;;;;32.90;13.50;;;;;;;-142.75;100.00;78826.81;5040118;28;20372;-67
2022/01/27 04:36:02;;;;;;;33.90;14.13;;;;;;;-142.75;100.00;78822.88;5042523;28;20076;-66
2022/01/27 04:38:35;;;;;;;32.43;13.20;;;;;;;-142.75;100.00;78807.09;5047261;28;20029;-66
2022/01/27 04:46:17;;;;;;;30.25;12.90;;;;;;;-142.75;100.00;78785.44;5036752;28;20403;-67
2022/01/27 04:48:48;;;;;;;30.40;12.53;;;;;;;-142.75;100.00;78775.59;5032007;28;20562;-66
2022/01/27 04:51:17;;;;;;;36.53;13.00;;;;;;;-142.75;100.00;78763.78;5014769;28;20495;-66
2022/01/27 04:53:55;;;;;;;29.63;12.87;;;;;;;-142.75;100.00;78757.88;5031187;28;20112;-68
2022/01/27 04:56:22;;;;;;;26.13;11.97;;;;;;;-142.75;100.00;78750.00;5028382;28;20032;-66
2022/01/27 04:58:53;;;;;;;26.20;10.77;;;;;;;-142.75;100.00;78753.94;5045978;28;20036;-67
2022/01/27 05:01:21;;;;;;;29.73;11.33;;;;;;;-142.75;100.00;78748.03;5044780;28;20025;-66
2022/01/27 05:03:52;;;;;;;25.70;11.57;;;;;;;-142.75;100.00;78753.94;5051747;28;20071;-67
2022/01/27 05:06:17;;;;;;;24.33;10.20;;;;;;;-142.75;100.00;78744.09;5040725;28;20025;-68
2022/01/27 05:08:43;;;;;;;24.30;10.43;;;;;;;-142.75;100.00;78744.09;5042912;28;20039;-66
2022/01/27 05:11:15;;;;;;;34.13;11.35;;;;;;;-142.75;100.00;78734.22;5051405;28;20282;-66
2022/01/27 05:13:50;;;;;;;26.80;10.57;;;;;;;-142.75;100.00;78730.28;5033830;28;20502;-66
2022/01/27 05:16:15;;;;;;;30.80;10.70;;;;;;;-142.75;100.00;78716.50;5042202;28;20031;-67
2022/01/27 05:18:40;;;;;;;33.97;10.93;;;;;;;-142.75;100.00;78718.47;5046321;28;20024;-67
2022/01/27 05:21:06;;;;;;;29.30;10.68;;;;;;;-142.75;100.00;78710.59;5044769;28;20345;-68
2022/01/27 05:23:31;;;;;;;29.05;9.90;;;;;;;-142.75;100.00;78704.69;5033651;28;20541;-66
2022/01/27 05:25:57;;;;;;;21.75;9.20;;;;;;;-142.75;100.00;78696.81;5055894;22;20568;-68
2022/01/27 05:28:22;;;;;;;28.95;10.20;;;;;;;-142.75;100.00;78692.88;5029221;28;20025;-67
2022/01/27 05:30:48;;;;;;;26.52;10.10;;;;;;;-142.75;100.00;78683.03;5014191;28;20095;-68
2022/01/27 05:33:13;;;;;;;25.75;8.77;;;;;;;-142.75;100.00;78671.22;5031703;28;20140;-68
2022/01/27 05:35:39;;;;;;;21.05;9.50;;;;;;;-142.75;100.00;78675.16;5031396;28;20025;-68
2022/01/27 05:38:04;;;;;;;28.90;9.05;;;;;;;-142.75;100.00;78655.44;5031033;28;20108;-68
2022/01/27 05:40:30;;;;;;;25.60;8.98;;;;;;;-142.75;100.00;78649.53;5031502;28;20108;-68
2022/01/27 05:42:55;;;;;;;33.53;10.20;;;;;;;-142.75;100.00;78649.53;5031503;28;20022;-68
2022/01/27 05:45:20;;;;;;;25.48;9.50;;;;;;;-142.75;100.00;78637.72;5031062;28;20057;-68
2022/01/27 05:47:45;;;;;;;21.52;9.88;;;;;;;-142.75;100.00;78625.91;5031345;28;20029;-68
2022/01/27 05:50:11;;;;;;;23.90;9.20;;;;;;;-142.75;100.00;78629.84;5030970;28;20029;-68
2022/01/27 05:52:36;;;;;;;31.50;9.90;;;;;;;-142.75;100.00;78625.91;5031053;28;20845;-67
2022/01/27 05:55:02;;;;;;;26.50;9.18;;;;;;;-142.75;100.00;78616.06;5031211;28;20033;-68
2022/01/27 05:57:27;;;;;;;24.02;8.98;;;;;;;-142.75;100.00;78598.34;5031089;28;20060;-68
2022/01/27 05:59:53;;;;;;;24.65;9.57;;;;;;;-142.75;100.00;78596.38;5030634;28;20056;-67
2022/01/27 06:02:18;;;;;;;22.85;8.45;;;;;;;-142.75;100.00;78586.53;5031818;28;20075;-67
2022/01/27 06:04:43;;;;;;;28.87;9.70;;;;;;;-142.75;100.00;78590.47;5031070;28;20044;-68
2022/01/27 06:07:08;;;;;;;31.83;10.37;;;;;;;-142.75;100.00;78590.47;5013391;28;20304;-67
2022/01/27 06:09:34;;;;;;;20.00;8.40;;;;;;;-142.75;100.00;78574.69;5030728;28;20025;-67
2022/01/27 06:11:59;;;;;;;26.13;9.50;;;;;;;-142.75;100.00;78574.69;5013334;28;20029;-67
2022/01/27 06:14:24;;;;;;;30.53;8.83;;;;;;;-142.75;100.00;78572.72;5030527;28;20298;-68
2022/01/27 06:16:50;;;;;;;20.65;8.73;;;;;;;-142.75;100.00;78574.69;5030889;28;20025;-68
2022/01/27 06:19:15;;;;;;;27.05;8.77;;;;;;;-142.75;100.00;78570.75;5030449;28;20033;-67
2022/01/27 06:21:43;;;;;;;20.43;8.90;;;;;;;-142.75;100.00;78562.88;5030538;28;20475;-68
2022/01/27 06:24:08;;;;;;;26.83;9.77;;;;;;;-142.75;100.00;78560.91;5030269;28;20279;-68
2022/01/27 06:26:34;;;;;;;25.25;9.43;;;;;;;-142.75;100.00;78566.81;5030434;28;20034;-67
2022/01/27 06:28:59;;;;;;;24.53;9.07;;;;;;;-142.75;100.00;78556.97;5029484;28;20495;-68
2022/01/27 06:31:24;;;;;;;25.27;7.93;;;;;;;-142.75;100.00;78558.94;5013330;28;20035;-67
2022/01/27 06:33:52;;;;;;;27.35;9.23;;;;;;;-142.75;100.00;78543.19;5030320;28;20029;-68
2022/01/27 06:36:18;;;;;;;29.43;8.03;;;;;;;-142.75;100.00;78539.25;5030455;28;20554;-67
2022/01/27 06:38:43;;;;;;;24.05;8.18;;;;;;;-142.75;100.00;78541.22;5029986;28;20029;-67
2022/01/27 06:41:09;;;;;;;22.20;8.60;;;;;;;-142.75;100.00;78533.34;5030395;28;20025;-68
2022/01/27 06:43:35;;;;;;;21.57;8.63;;;;;;;-142.75;100.00;78537.28;5012473;28;20053;-67
2022/01/27 06:46:00;;;;;;;23.97;8.87;;;;;;;-142.75;100.00;78535.31;5029627;28;20115;-68
2022/01/27 06:48:25;;;;;;;30.77;8.97;;;;;;;-142.75;100.00;78535.31;5030032;28;20275;-68
2022/01/27 06:50:54;;;;;;;23.08;8.45;;;;;;;-142.75;100.00;78527.44;5012379;28;20206;-68
2022/01/27 06:53:20;;;;;;;29.93;9.60;;;;;;;-142.75;100.00;78541.22;5012586;28;20029;-67
2022/01/27 06:55:46;;;;;;;25.63;9.13;;;;;;;-142.75;100.00;78539.25;5030498;28;20029;-68
2022/01/27 06:58:11;;;;;;;24.52;8.02;;;;;;;-142.75;100.00;78539.25;5030473;28;20029;-68
2022/01/27 07:00:37;;;;;;;25.55;8.70;;;;;;;-142.75;100.00;78537.28;5030658;28;20048;-67
2022/01/27 07:03:02;;;;;;;21.52;8.88;;;;;;;-142.75;100.00;78537.28;5031052;28;20402;-67
2022/01/27 07:05:30;;;;;;;27.45;9.38;;;;;;;-142.75;100.00;78537.28;5030639;28;20026;-67
2022/01/27 07:07:56;;;;;;;26.17;9.33;;;;;;;-142.75;100.00;78531.38;5012646;28;20018;-67
2022/01/27 07:10:21;;;;;;;24.20;8.27;;;;;;;-142.75;100.00;78529.41;5030693;28;20091;-67
2022/01/27 07:12:46;;;;;;;22.43;7.93;;;;;;;-142.75;100.00;78539.25;5030620;28;20757;-68
2022/01/27 07:15:12;;;;;;;20.00;8.20;;;;;;;-142.75;100.00;78535.31;5012787;28;20018;-67
2022/01/27 07:17:37;;;;;;;21.13;8.23;;;;;;;-142.75;100.00;78533.34;5030647;28;20469;-68
2022/01/27 07:20:03;;;;;;;22.17;8.52;;;;;;;-142.75;100.00;78527.44;5030388;28;20060;-67
2022/01/27 07:22:32;;;;;;;19.45;8.13;;;;;;;-142.75;100.00;78529.41;5030605;28;20452;-68
2022/01/27 07:24:57;;;;;;;27.83;9.47;;;;;;;-142.75;100.00;78531.38;5030332;28;20474;-68
2022/01/27 07:27:23;;;;;;;24.42;8.25;;;;;;;-142.75;100.00;78539.25;5012725;28;20037;-67
2022/01/27 07:29:48;;;;;;;23.53;8.13;;;;;;;-142.75;100.00;78547.13;5030178;28;20069;-67
2022/01/27 07:32:13;;;;;;;32.00;9.27;;;;;;;-142.75;100.00;78551.06;5030417;28;20280;-67
2022/01/27 07:34:38;;;;;;;26.33;9.25;;;;;;;-142.75;100.00;78551.06;5030295;28;20035;-68
2022/01/27 07:37:04;;;;;;;22.10;8.70;;;;;;;-142.75;100.00;78556.97;5030430;28;20075;-67
2022/01/27 07:39:29;;;;;;;22.15;8.48;;;;;;;-142.75;100.00;78562.88;5012326;28;20677;-68
2022/01/27 07:41:57;;;;;;;22.47;8.93;;;;;;;-142.75;100.00;78549.09;5030362;28;20399;-68
2022/01/27 07:44:24;;;;;;;29.07;10.13;;;;;;;-142.75;100.00;78551.06;5030211;28;20812;-68
2022/01/27 07:46:49;;;;;;;30.83;8.60;;;;;;;-142.75;100.00;78556.97;5030308;28;20406;-68
2022/01/27 07:49:14;;;;;;;21.60;8.60;;;;;;;-142.75;100.00;78560.91;5030147;28;20030;-69
2022/01/27 07:51:40;;;;;;;22.40;7.90;;;;;;;-142.75;100.00;78562.88;5030353;28;20284;-68
2022/01/27 07:54:06;;;;;;;28.60;9.93;;;;;;;-142.75;100.00;78570.75;5012374;28;20662;-67
2022/01/27 07:56:32;;;;;;;26.70;8.30;;;;;;;-142.75;100.00;78558.94;5031804;28;20040;-68
2022/01/27 07:58:57;;;;;;;23.58;8.10;;;;;;;-142.75;100.00;78564.84;5033652;28;20021;-68
2022/01/27 08:01:23;;;;;;;23.17;8.33;;;;;;;-142.75;100.00;78562.88;5034037;28;20483;-68
2022/01/27 08:03:48;;;;;;;30.38;8.32;;;;;;;-142.75;100.00;78562.88;5033876;28;20350;-68
2022/01/27 08:06:13;;;;;;;23.35;8.43;;;;;;;-142.75;100.00;78558.94;5033834;28;20398;-69
2022/01/27 08:08:39;;;;;;;20.08;8.18;;;;;;;-142.75;100.00;78558.94;5033512;28;20037;-68
2022/01/27 08:11:05;;;;;;;21.35;8.18;;;;;;;-142.75;100.00;78558.94;5033747;28;20438;-68
2022/01/27 08:13:30;;;;;;;20.63;8.80;;;;;;;-142.75;100.00;78555.00;5033855;28;20584;-68
2022/01/27 08:15:55;;;;;;;18.10;8.05;;;;;;;-142.75;100.00;78558.94;5015842;28;20025;-68
2022/01/27 08:18:21;;;;;;;26.38;8.23;;;;;;;-142.75;100.00;78558.94;5033409;28;20033;-68
2022/01/27 08:20:47;;;;;;;18.38;7.30;;;;;;;-142.75;100.00;78551.06;5033586;28;20033;-68
2022/01/27 08:23:14;;;;;;;;;;;;;;;-142.75;100.00;78555.00;5034020;28;20083;-68
2022/01/27 08:25:40;;;;;;;23.98;7.70;;;;;;;-142.75;100.00;78558.94;5033162;28;19913;-68
2022/01/27 08:28:16;;;;;;;17.27;7.87;;;;;;;-142.75;100.00;78560.91;5033180;28;20121;-68
2022/01/27 08:30:46;;;;;;;17.13;7.87;;;;;;;-142.75;100.00;78553.03;5033358;28;20118;-68
2022/01/27 08:33:15;;;;;;;16.77;7.03;;;;;;;-142.75;100.00;78555.00;5033331;28;20029;-68
2022/01/27 08:35:40;;;;;;;19.03;7.43;;;;;;;-142.75;100.00;78562.88;5033263;28;20025;-69
2022/01/27 08:38:05;;;;;;;19.17;8.00;;;;;;;-142.75;100.00;78564.84;5032986;28;20460;-68
2022/01/27 08:40:31;;;;;;;22.40;8.50;;;;;;;-142.75;100.00;78555.00;5033279;28;20479;-68
2022/01/27 08:42:57;;;;;;;17.77;7.22;;;;;;;-142.75;100.00;78549.09;5033047;28;20402;-69
2022/01/27 08:45:24;;;;;;;20.43;8.53;;;;;;;-142.75;100.00;78555.00;5033074;28;20025;-68
2022/01/27 08:47:51;;;;;;;21.63;8.00;;;;;;;-142.75;100.00;78547.13;5015145;28;20018;-68
2022/01/27 08:50:18;;;;;;;;;;;;;;;-142.75;100.00;78551.06;5033577;28;20479;-68
2022/01/27 08:52:44;;;;;;;18.20;7.83;;;;;;;-142.75;100.00;78545.16;5032970;28;19932;-68
2022/01/27 08:55:10;;;;;;;19.80;8.55;;;;;;;-142.75;100.00;78547.13;5032891;28;20560;-68
2022/01/27 08:57:36;;;;;;;;;;;;;;;-142.75;100.00;78543.19;5033313;28;20033;-69
2022/01/27 09:00:04;;;;;;;19.50;8.20;;;;;;;-142.75;100.00;78539.25;5032653;28;20023;-68
2022/01/27 09:02:29;;;;;;;23.40;8.03;;;;;;;-142.75;100.00;78527.44;5032829;28;20025;-68
2022/01/27 09:04:55;;;;;;;23.10;8.18;;;;;;;-142.75;100.00;78539.25;5014787;28;20083;-69
2022/01/27 09:07:20;;;;;;;18.48;8.48;;;;;;;-142.75;100.00;78533.34;5032343;28;20029;-69
2022/01/27 09:09:46;;;;;;;29.35;9.40;;;;;;;-142.75;100.00;78523.50;5032322;28;20052;-67
2022/01/27 09:12:13;;;;;;;28.45;9.70;;;;;;;-142.75;100.00;78533.34;5032657;28;20022;-67
2022/01/27 09:14:41;;;;;;;23.60;9.60;;;;;;;-142.75;100.00;78535.31;5031086;28;20406;-66
2022/01/27 09:17:09;;;;;;;25.07;9.97;;;;;;;-142.75;100.00;78527.44;5031432;28;20028;-68
2022/01/27 09:19:38;;;;;;;25.53;10.43;;;;;;;-142.75;100.00;78527.44;5013353;28;20491;-69
2022/01/27 09:22:08;;;;;;;27.70;8.93;;;;;;;-142.75;100.00;78523.50;5031519;28;20029;-69
2022/01/27 09:24:39;;;;;;;24.00;10.07;;;;;;;-142.75;100.00;78509.72;5031264;28;20025;-68
2022/01/27 09:27:05;;;;;;;27.60;10.03;;;;;;;-142.75;100.00;78515.63;5031190;28;20060;-68
2022/01/27 09:29:31;;;;;;;27.08;9.85;;;;;;;-142.75;100.00;78499.88;5031004;28;20107;-68
2022/01/27 09:31:58;;;;;;;24.95;9.43;;;;;;;-142.75;100.00;78507.75;5031426;28;20036;-67
2022/01/27 09:34:24;;;;;;;25.20;9.80;;;;;;;-142.75;100.00;78495.94;5013162;28;20021;-67
2022/01/27 09:36:53;;;;;;;36.22;9.90;;;;;;;-142.75;100.00;78495.94;5031084;28;20036;-68
2022/01/27 09:39:20;;;;;;;16.60;8.43;;;;;;;-142.75;100.00;78490.00;5013201;28;20414;-68
2022/01/27 09:41:49;;;;;;;26.70;9.07;;;;;;;-142.75;100.00;78484.09;5031077;28;20029;-68
2022/01/27 09:44:14;;;;;;;26.67;8.80;;;;;;;-142.75;100.00;78484.09;5030288;28;20025;-67
2022/01/27 09:46:43;;;;;;;27.73;8.70;;;;;;;-142.75;100.00;78484.09;5031015;28;20554;-68
2022/01/27 09:49:14;;;;;;;20.07;8.60;;;;;;;-142.75;100.00;78470.31;5030410;28;20283;-67
2022/01/27 09:51:44;;;;;;;19.00;8.17;;;;;;;-142.75;100.00;78468.34;5030894;28;20048;-68
2022/01/27 09:54:10;;;;;;;25.57;9.00;;;;;;;-142.75;100.00;78460.47;5030462;28;20028;-68
2022/01/27 09:56:36;;;;;;;19.88;8.15;;;;;;;-142.75;100.00;78468.34;5030841;28;20423;-68
2022/01/27 09:59:03;;;;;;;22.30;8.57;;;;;;;-142.75;100.00;78456.53;5012375;28;20024;-67
2022/01/27 10:01:29;;;;;;;20.40;8.93;;;;;;;-142.75;100.00;78454.56;5030682;28;20021;-68
2022/01/27 10:04:00;;;;;;;23.48;8.18;;;;;;;-142.75;100.00;78446.69;5030594;28;20106;-68
2022/01/27 10:06:30;;;;;;;21.05;7.80;;;;;;;-142.75;100.00;78448.66;5030531;28;20036;-68
2022/01/27 10:09:24;;;;;;;23.27;7.93;;;;;;;-142.75;100.00;78458.50;5030263;28;20028;-68
2022/01/27 10:11:50;;;;;;;24.37;8.70;;;;;;;-142.75;100.00;78448.66;5012867;28;20036;-68
2022/01/27 10:14:26;;;;;;;25.13;8.40;;;;;;;-142.75;100.00;78440.78;5026020;28;20025;-68
2022/01/27 10:16:54;;;;;;;28.80;7.57;;;;;;;-142.75;100.00;78436.84;5024229;28;20510;-68
2022/01/27 10:19:21;;;;;;;24.00;7.63;;;;;;;-142.75;100.00;78436.84;5029356;28;20033;-68
2022/01/27 10:21:47;;;;;;;19.17;7.03;;;;;;;-142.75;100.00;78436.84;5030253;28;20025;-67
2022/01/27 10:24:26;;;;;;;19.60;7.17;;;;;;;-142.75;100.00;78436.84;5029844;28;20454;-68
2022/01/27 10:27:29;;;;;;;24.17;7.60;;;;;;;-142.75;100.00;78432.91;5030025;28;20531;-66
2022/01/27 10:32:38;;;;;;;22.13;7.10;;;;;;;-142.75;100.00;78419.13;5030534;28;20037;-67
2022/01/27 10:35:04;;;;;;;25.27;7.20;;;;;;;-142.75;100.00;78423.06;5030163;28;20033;-67
2022/01/27 10:37:55;;;;;;;18.30;6.45;;;;;;;-142.75;100.00;78417.16;5029724;28;20109;-67
2022/01/27 10:40:30;;;;;;;16.43;6.17;;;;;;;-142.75;100.00;78427.00;5029949;28;20079;-67
2022/01/27 10:43:06;;;;;;;21.87;6.30;;;;;;;-142.75;100.00;78415.19;5029943;28;20028;-67
2022/01/27 10:45:31;;;;;;;26.57;6.50;;;;;;;-142.75;100.00;78421.09;5029236;28;20029;-66
2022/01/27 10:48:23;;;;;;;18.85;6.68;;;;;;;-142.75;100.00;78419.13;5029830;28;20026;-67
2022/01/27 10:50:59;;;;;;;23.63;7.43;;;;;;;-142.75;100.00;78409.28;5030087;28;20096;-68
2022/01/27 10:53:42;;;;;;;17.45;7.00;;;;;;;-142.75;100.00;78407.31;5029997;28;20025;-68
2022/01/27 10:56:08;;;;;;;20.03;6.33;;;;;;;-142.75;100.00;78409.28;5029414;28;20018;-68
2022/01/27 10:58:34;;;;;;;18.80;6.97;;;;;;;-142.75;100.00;78403.38;5029675;28;20032;-68
2022/01/27 11:01:00;;;;;;;;;;;;;;;-142.75;100.00;78405.34;5030982;28;20110;-68
2022/01/27 11:03:28;;;;;;;28.07;7.20;;;;;;;-142.75;100.00;78409.28;5030788;28;20426;-68
2022/01/27 11:05:56;;;;;;;23.50;6.37;;;;;;;-142.75;100.00;78413.22;5030603;28;20061;-68
2022/01/27 11:08:24;;;;;;;19.93;6.33;;;;;;;-142.75;100.00;78411.25;5030399;28;20100;-68
2022/01/27 11:10:50;;;;;;;21.87;6.77;;;;;;;-142.75;100.00;78417.16;5013044;28;20063;-68
2022/01/27 11:13:17;;;;;;;20.45;6.18;;;;;;;-142.75;100.00;78407.31;5030643;28;20159;-68
2022/01/27 11:15:42;;;;;;;22.03;5.67;;;;;;;-142.75;100.00;78401.38;5030661;28;20467;-67
2022/01/27 11:18:09;;;;;;;28.00;7.07;;;;;;;-142.75;100.00;78365.94;5030265;28;20033;-68
2022/01/27 11:20:54;;;;;;;17.48;5.10;;;;;;;-142.75;100.00;78314.75;5030741;28;20107;-67
2022/01/27 11:26:07;;;;;;;20.00;5.47;;;;;;;-142.75;100.00;78322.63;5023568;23;20057;-66
2022/01/27 11:28:33;;;;;;;19.40;5.40;;;;;;;-142.75;100.00;78352.16;4987914;28;20526;-66
2022/01/27 11:31:29;;;;;;;14.80;4.90;;;;;;;-142.75;100.00;78363.97;4973119;28;20034;-66
2022/01/27 11:34:00;;;;;;;20.83;5.65;;;;;;;-142.75;100.00;78360.03;4994626;28;20037;-66
2022/01/27 11:36:26;;;;;;;19.17;6.30;;;;;;;-142.75;100.00;78369.88;4977722;28;20204;-66
2022/01/27 11:38:51;;;;;;;14.65;5.05;;;;;;;-142.75;100.00;78362.00;4994776;28;20263;-66
2022/01/27 11:41:36;;;;;;;19.60;5.10;;;;;;;-142.75;100.00;78362.00;4994842;28;20480;-66
2022/01/27 11:44:22;;;;;;;18.23;5.18;;;;;;;-142.75;100.00;78362.00;4976219;28;20022;-67
2022/01/27 11:47:18;;;;;;;22.63;5.63;;;;;;;-142.75;100.00;78344.28;4994885;28;20034;-66